Time;durP1;ratioP1;P1;durP2;ratioP2;P2;SDS_P1;SDS_P2;PMS_P1;PMS_P2;Temp;Humidity;BMP_temperature;BMP_pressure;BME280_temperature;BME280_humidity;BME280_pressure;Samples;Min_cycle;Max_cycle;Signal;HPM_P1;HPM_P2
2022/12/18 00:01:15;;;;;;;48.85;31.33;;;-7.80;99.90;;;;;;5005718;28;20466;-69
2022/12/18 00:03:42;;;;;;;44.80;29.08;;;-7.70;99.90;;;;;;5015672;28;20512;-69
2022/12/18 00:06:11;;;;;;;55.95;31.90;;;-7.70;99.90;;;;;;5007300;28;20543;-69
2022/12/18 00:08:38;;;;;;;43.50;28.95;;;-7.70;99.90;;;;;;5015659;28;20135;-68
2022/12/18 00:11:06;;;;;;;40.72;27.33;;;-7.50;99.90;;;;;;5005665;28;20193;-69
2022/12/18 00:13:33;;;;;;;40.17;27.63;;;-7.60;99.90;;;;;;5008340;28;20100;-68
2022/12/18 00:16:06;;;;;;;39.97;27.55;;;-7.60;99.90;;;;;;5015461;28;21906;-68
2022/12/18 00:18:33;;;;;;;47.13;28.73;;;-7.60;99.90;;;;;;5044283;28;20128;-69
2022/12/18 00:21:02;;;;;;;43.65;28.50;;;-7.60;99.90;;;;;;5015291;28;20274;-68
2022/12/18 00:23:30;;;;;;;45.33;28.90;;;-7.60;99.90;;;;;;5012791;28;20055;-68
2022/12/18 00:26:05;;;;;;;39.15;28.65;;;-7.60;99.90;;;;;;5010480;28;20070;-68
2022/12/18 00:28:32;;;;;;;40.72;27.63;;;-7.60;99.90;;;;;;5009954;28;20045;-69
2022/12/18 00:31:05;;;;;;;40.90;27.00;;;-7.50;99.90;;;;;;5019362;28;20445;-69
2022/12/18 00:33:32;;;;;;;38.63;26.45;;;-7.30;99.90;;;;;;5015289;28;20067;-68
2022/12/18 00:36:12;;;;;;;42.13;26.45;;;-7.30;99.90;;;;;;5014916;28;20041;-69
2022/12/18 00:38:39;;;;;;;37.55;26.80;;;-7.30;99.90;;;;;;5011207;28;20067;-69
2022/12/18 00:41:08;;;;;;;37.25;26.83;;;-7.20;99.90;;;;;;5006668;28;20059;-68
2022/12/18 00:43:35;;;;;;;34.13;26.15;;;-7.20;99.90;;;;;;4999706;28;20465;-69
2022/12/18 00:46:03;;;;;;;38.40;24.95;;;-7.20;99.90;;;;;;5008854;28;20048;-69
2022/12/18 00:48:31;;;;;;;35.67;25.02;;;-7.20;99.90;;;;;;5009978;28;20313;-68
2022/12/18 00:50:58;;;;;;;36.13;23.27;;;-7.10;99.90;;;;;;5010891;28;20184;-68
2022/12/18 00:53:25;;;;;;;32.00;21.90;;;-7.10;99.90;;;;;;5008665;28;21240;-68
2022/12/18 00:55:51;;;;;;;36.50;23.70;;;-6.90;99.90;;;;;;5016007;28;20466;-69
2022/12/18 00:58:18;;;;;;;36.10;23.98;;;-6.70;99.90;;;;;;5008891;28;20512;-69
2022/12/18 01:00:45;;;;;;;33.83;22.63;;;-6.70;99.90;;;;;;5016782;28;20124;-70
2022/12/18 01:03:14;;;;;;;32.10;22.95;;;-6.70;99.90;;;;;;5010036;28;20103;-69
2022/12/18 01:05:43;;;;;;;34.90;24.83;;;-6.80;99.90;;;;;;4999182;28;20086;-69
2022/12/18 01:08:11;;;;;;;33.33;23.88;;;-6.90;99.90;;;;;;5012679;28;20063;-69
2022/12/18 01:10:40;;;;;;;33.42;23.92;;;-7.00;99.90;;;;;;5012342;28;20041;-69
2022/12/18 01:13:08;;;;;;;31.70;23.70;;;-7.00;99.90;;;;;;5004858;28;20055;-68
2022/12/18 01:15:34;;;;;;;34.20;24.60;;;-6.90;99.90;;;;;;5016289;28;20051;-69
2022/12/18 01:18:01;;;;;;;30.00;23.65;;;-7.10;99.90;;;;;;5013005;28;20050;-68
2022/12/18 01:20:28;;;;;;;34.63;22.80;;;-7.00;99.90;;;;;;5005863;28;20346;-69
2022/12/18 01:22:55;;;;;;;33.45;24.70;;;-6.90;99.90;;;;;;5010289;28;20045;-69
2022/12/18 01:25:21;;;;;;;33.03;24.67;;;-6.90;99.90;;;;;;5007336;28;20128;-69
2022/12/18 01:27:50;;;;;;;32.47;23.52;;;-6.90;99.90;;;;;;5011566;28;20041;-68
2022/12/18 01:30:17;;;;;;;34.05;24.77;;;-7.00;99.90;;;;;;5009257;28;20034;-69
2022/12/18 01:32:44;;;;;;;35.58;24.95;;;-7.10;99.90;;;;;;5003592;28;20067;-69
2022/12/18 01:35:11;;;;;;;29.75;24.13;;;-7.00;99.90;;;;;;5033823;28;20513;-67
2022/12/18 01:37:37;;;;;;;32.25;23.58;;;-7.00;99.90;;;;;;5018891;28;20041;-69
2022/12/18 01:40:05;;;;;;;32.83;22.88;;;-7.00;99.90;;;;;;5009599;28;20135;-69
2022/12/18 01:42:32;;;;;;;34.28;24.25;;;-6.80;99.90;;;;;;4998269;28;20576;-68
2022/12/18 01:45:11;;;;;;;32.63;24.08;;;-6.70;99.90;;;;;;5001469;28;20136;-69
2022/12/18 01:47:51;;;;;;;34.72;24.63;;;-6.70;99.90;;;;;;5016412;28;20117;-69
2022/12/18 01:50:25;;;;;;;35.22;22.10;;;-6.80;99.90;;;;;;5011446;28;20103;-68
2022/12/18 01:52:55;;;;;;;;;;;-6.70;99.90;;;;;;4994751;28;20103;-69
2022/12/18 01:55:25;;;;;;;29.27;23.08;;;-6.70;99.90;;;;;;5012786;28;20484;-69
2022/12/18 01:57:54;;;;;;;28.08;22.73;;;-6.70;99.90;;;;;;4994052;28;20045;-68
2022/12/18 02:00:22;;;;;;;29.83;22.92;;;-6.80;99.90;;;;;;5010104;28;20071;-69
2022/12/18 02:02:50;;;;;;;35.58;24.42;;;-6.90;99.90;;;;;;5004564;28;20577;-69
2022/12/18 02:05:32;;;;;;;30.70;24.77;;;-6.80;99.90;;;;;;4994251;28;20053;-68
2022/12/18 02:08:10;;;;;;;33.67;24.70;;;-6.90;99.90;;;;;;5017704;28;20130;-69
2022/12/18 02:11:09;;;;;;;34.30;24.88;;;-6.90;99.90;;;;;;5022807;28;20037;-68
2022/12/18 02:13:50;;;;;;;37.38;24.85;;;-6.90;99.90;;;;;;5014839;28;20152;-68
2022/12/18 02:16:59;;;;;;;32.70;25.10;;;-6.90;99.90;;;;;;5012442;28;20036;-69
2022/12/18 02:19:56;;;;;;;36.72;23.60;;;-6.90;99.90;;;;;;4991302;28;20449;-68
2022/12/18 02:22:38;;;;;;;35.60;25.00;;;-7.00;99.90;;;;;;5007773;28;20045;-68
2022/12/18 02:25:29;;;;;;;34.25;25.48;;;-7.00;99.90;;;;;;4995942;28;20513;-69
2022/12/18 02:28:01;;;;;;;35.05;26.02;;;-7.20;99.90;;;;;;5013610;28;20048;-68
2022/12/18 02:30:32;;;;;;;40.00;27.65;;;-7.20;99.90;;;;;;5032281;28;21575;-69
2022/12/18 02:33:03;;;;;;;36.75;24.65;;;-7.10;99.90;;;;;;5017468;28;20099;-68
2022/12/18 02:35:33;;;;;;;36.03;24.73;;;-7.20;99.90;;;;;;5028684;28;20883;-69
2022/12/18 02:38:03;;;;;;;37.58;25.40;;;-7.20;99.90;;;;;;5017681;28;20052;-68
2022/12/18 02:40:34;;;;;;;40.38;26.98;;;-7.10;99.90;;;;;;5008401;28;20041;-68
2022/12/18 02:43:09;;;;;;;42.90;27.23;;;-7.20;99.90;;;;;;5017229;28;20059;-68
2022/12/18 02:45:47;;;;;;;38.35;27.50;;;-7.20;99.90;;;;;;5014187;28;20440;-68
2022/12/18 02:48:15;;;;;;;39.15;25.45;;;-7.20;99.90;;;;;;4991254;28;20049;-68
2022/12/18 02:51:00;;;;;;;33.50;25.95;;;-7.20;99.90;;;;;;5021415;28;20063;-68
2022/12/18 02:53:39;;;;;;;44.47;26.52;;;-7.30;99.90;;;;;;5009971;28;20053;-68
2022/12/18 02:56:18;;;;;;;36.92;24.17;;;-7.30;99.90;;;;;;5009175;28;20045;-68
2022/12/18 02:58:55;;;;;;;36.28;25.15;;;-7.20;99.90;;;;;;5012626;28;20264;-68
2022/12/18 03:01:52;;;;;;;36.97;23.38;;;-7.20;99.90;;;;;;5021705;28;20049;-69
2022/12/18 03:04:29;;;;;;;28.88;21.13;;;-7.00;99.90;;;;;;4990913;28;20525;-71
2022/12/18 03:07:01;;;;;;;35.58;22.92;;;-6.80;99.90;;;;;;5011106;28;20209;-69
2022/12/18 03:09:43;;;;;;;28.10;18.85;;;-6.60;99.90;;;;;;5023102;28;20372;-69
2022/12/18 03:12:29;;;;;;;35.45;22.40;;;-6.60;99.90;;;;;;5008307;28;20087;-68
2022/12/18 03:15:20;;;;;;;44.20;23.00;;;-6.50;99.90;;;;;;4994914;28;20069;-69
2022/12/18 03:18:08;;;;;;;33.05;21.25;;;-6.40;99.90;;;;;;4993034;28;20045;-69
2022/12/18 03:20:39;;;;;;;36.03;23.20;;;-6.50;99.90;;;;;;5027388;28;20061;-69
2022/12/18 03:23:12;;;;;;;32.88;22.77;;;-6.60;99.90;;;;;;5018109;28;20120;-71
2022/12/18 03:25:43;;;;;;;40.72;24.27;;;-6.60;99.90;;;;;;5010011;28;20363;-68
2022/12/18 03:28:17;;;;;;;35.97;24.75;;;-6.70;99.90;;;;;;5010525;28;20441;-68
2022/12/18 03:30:47;;;;;;;39.90;24.33;;;-6.80;99.90;;;;;;5005621;28;20045;-69
2022/12/18 03:33:29;;;;;;;41.72;26.65;;;-6.90;99.90;;;;;;5002575;28;20045;-68
2022/12/18 03:35:56;;;;;;;39.13;25.63;;;-7.00;99.90;;;;;;4995356;28;20041;-69
2022/12/18 03:38:23;;;;;;;36.08;25.38;;;-7.10;99.90;;;;;;4996644;28;20060;-68
2022/12/18 03:41:01;;;;;;;38.10;26.23;;;-7.00;99.90;;;;;;5010441;28;20045;-69
2022/12/18 03:43:37;;;;;;;41.92;24.77;;;-7.10;99.90;;;;;;5014005;28;20657;-69
2022/12/18 03:46:14;;;;;;;44.72;24.83;;;-6.90;99.90;;;;;;5008526;28;20464;-68
2022/12/18 03:48:48;;;;;;;40.53;26.20;;;-7.00;99.90;;;;;;5013774;28;20060;-68
2022/12/18 03:51:28;;;;;;;41.13;24.27;;;-7.00;99.90;;;;;;5005735;28;20658;-69
2022/12/18 03:54:01;;;;;;;33.80;25.42;;;-7.10;99.90;;;;;;5015965;28;20049;-69
2022/12/18 03:56:41;;;;;;;41.78;25.48;;;-7.10;99.90;;;;;;5040082;23;20914;-72
2022/12/18 03:59:12;;;;;;;34.83;23.77;;;-7.20;99.90;;;;;;5040150;28;20064;-73
2022/12/18 04:01:43;;;;;;;40.90;26.13;;;-7.00;99.90;;;;;;5037060;28;20049;-73
2022/12/18 04:04:13;;;;;;;43.63;25.85;;;-7.00;99.90;;;;;;5015377;28;20060;-72
2022/12/18 04:06:43;;;;;;;40.72;24.80;;;-7.00;99.90;;;;;;5035815;28;20041;-73
2022/12/18 04:09:12;;;;;;;39.03;25.40;;;-6.90;99.90;;;;;;5033686;28;20033;-72
2022/12/18 04:11:46;;;;;;;40.08;25.20;;;-6.70;99.90;;;;;;5032829;28;20081;-73
2022/12/18 04:14:14;;;;;;;36.42;24.05;;;-6.70;99.90;;;;;;5014957;28;20095;-73
2022/12/18 04:16:44;;;;;;;36.03;23.95;;;-6.60;99.90;;;;;;5032588;28;20037;-73
2022/12/18 04:19:14;;;;;;;37.58;23.35;;;-6.40;99.90;;;;;;5018490;28;20080;-73
2022/12/18 04:21:42;;;;;;;39.25;24.77;;;-6.60;99.90;;;;;;5035176;28;20131;-72
2022/12/18 04:24:11;;;;;;;36.97;22.50;;;-6.50;99.90;;;;;;5033704;28;20056;-72
2022/12/18 04:26:45;;;;;;;37.40;23.98;;;-6.30;99.90;;;;;;5035063;28;20081;-73
2022/12/18 04:29:15;;;;;;;40.08;24.48;;;-6.20;99.90;;;;;;5037180;28;20048;-73
2022/12/18 04:31:42;;;;;;;35.78;23.30;;;-6.30;99.90;;;;;;5018298;28;20461;-72
2022/12/18 04:34:10;;;;;;;43.97;23.83;;;-6.30;99.90;;;;;;5034865;28;20068;-73
2022/12/18 04:36:42;;;;;;;37.40;23.92;;;-6.30;99.90;;;;;;5015200;28;20063;-73
2022/12/18 04:39:09;;;;;;;42.80;24.45;;;-6.20;99.90;;;;;;5038870;28;20443;-73
2022/12/18 04:41:36;;;;;;;32.80;21.95;;;-6.10;99.90;;;;;;5017125;28;20048;-73
2022/12/18 04:44:04;;;;;;;37.78;22.83;;;-6.00;99.90;;;;;;5039199;28;20287;-72
2022/12/18 04:46:31;;;;;;;36.45;22.88;;;-6.00;99.90;;;;;;5037545;28;20464;-73
2022/12/18 04:48:57;;;;;;;25.23;19.80;;;-5.90;99.90;;;;;;5036850;28;20097;-73
2022/12/18 04:51:24;;;;;;;26.05;20.20;;;-5.80;99.90;;;;;;5033674;28;20041;-73
2022/12/18 04:53:53;;;;;;;34.60;22.88;;;-5.70;99.90;;;;;;5036883;28;20049;-73
2022/12/18 04:56:20;;;;;;;33.92;22.58;;;-5.60;99.90;;;;;;5033373;28;20036;-73
2022/12/18 04:58:47;;;;;;;30.55;19.63;;;-5.50;99.90;;;;;;5034747;28;20049;-72
2022/12/18 05:01:15;;;;;;;27.83;19.20;;;-5.40;99.90;;;;;;5032805;28;20053;-73
2022/12/18 05:03:43;;;;;;;30.52;21.40;;;-5.30;99.90;;;;;;5035735;28;20041;-72
2022/12/18 05:06:10;;;;;;;30.98;23.13;;;-5.30;99.90;;;;;;5035347;28;20453;-72
2022/12/18 05:08:37;;;;;;;35.03;24.17;;;-5.20;99.90;;;;;;5034824;28;20059;-73
2022/12/18 05:11:07;;;;;;;26.42;20.92;;;-5.10;99.90;;;;;;5042692;28;20056;-73
2022/12/18 05:13:34;;;;;;;23.42;20.27;;;-5.20;99.90;;;;;;5031762;28;20049;-73
2022/12/18 05:16:02;;;;;;;30.35;21.73;;;-5.20;99.90;;;;;;5035015;28;20049;-73
2022/12/18 05:18:29;;;;;;;41.08;24.00;;;-5.20;99.90;;;;;;5034002;28;21226;-73
2022/12/18 05:20:56;;;;;;;30.98;24.17;;;-5.20;99.90;;;;;;5035927;28;20041;-73
2022/12/18 05:23:24;;;;;;;34.80;23.90;;;-5.20;99.90;;;;;;5035807;28;20045;-73
2022/12/18 05:25:52;;;;;;;31.48;23.52;;;-5.20;99.90;;;;;;5018289;28;20114;-72
2022/12/18 05:28:20;;;;;;;35.33;25.08;;;-5.20;99.90;;;;;;5032040;28;20466;-73
2022/12/18 05:30:52;;;;;;;27.50;22.77;;;-5.10;99.90;;;;;;5035090;28;20288;-73
2022/12/18 05:33:20;;;;;;;35.05;25.63;;;-5.10;99.90;;;;;;5034052;28;20246;-72
2022/12/18 05:35:55;;;;;;;35.95;26.55;;;-5.20;99.90;;;;;;5031694;28;20220;-72
2022/12/18 05:38:24;;;;;;;33.47;23.92;;;-5.20;99.90;;;;;;5047343;28;20044;-74
2022/12/18 05:40:52;;;;;;;38.22;25.23;;;-5.20;99.90;;;;;;5034861;28;20064;-72
2022/12/18 05:43:21;;;;;;;35.22;25.20;;;-5.30;99.90;;;;;;5027465;28;20347;-73
2022/12/18 05:45:49;;;;;;;34.58;24.77;;;-5.40;99.90;;;;;;5032366;28;20126;-73
2022/12/18 05:48:16;;;;;;;31.23;23.88;;;-5.40;99.90;;;;;;5033204;28;20036;-72
2022/12/18 05:50:48;;;;;;;35.35;24.83;;;-5.50;99.90;;;;;;5031866;28;20044;-72
2022/12/18 05:53:16;;;;;;;32.20;25.30;;;-5.50;99.90;;;;;;5033151;28;20040;-73
2022/12/18 05:55:44;;;;;;;35.40;25.13;;;-5.60;99.90;;;;;;5031920;28;20091;-73
2022/12/18 05:58:12;;;;;;;33.00;24.35;;;-5.70;99.90;;;;;;5032714;28;20473;-72
2022/12/18 06:00:40;;;;;;;39.25;25.63;;;-5.60;99.90;;;;;;5031512;28;20068;-73
2022/12/18 06:03:08;;;;;;;37.95;25.50;;;-5.60;99.90;;;;;;5035285;28;20045;-73
2022/12/18 06:05:40;;;;;;;32.47;25.98;;;-5.60;99.90;;;;;;5031868;28;20145;-75
2022/12/18 06:08:07;;;;;;;29.45;24.38;;;-5.70;99.90;;;;;;5033575;28;20052;-73
2022/12/18 06:10:34;;;;;;;35.92;25.02;;;-5.80;99.90;;;;;;5031183;28;20049;-72
2022/12/18 06:13:01;;;;;;;29.08;24.35;;;-5.80;99.90;;;;;;5037248;28;20541;-72
2022/12/18 06:15:28;;;;;;;34.63;24.88;;;-5.80;99.90;;;;;;5031414;28;20125;-73
2022/12/18 06:17:54;;;;;;;36.25;24.15;;;-5.90;99.90;;;;;;5034021;28;20052;-73
2022/12/18 06:20:21;;;;;;;32.35;24.33;;;-5.90;99.90;;;;;;5031062;28;20207;-73
2022/12/18 06:22:48;;;;;;;39.28;24.65;;;-5.80;99.90;;;;;;5032376;28;20029;-73
2022/12/18 06:25:15;;;;;;;34.47;24.77;;;-5.80;99.90;;;;;;5019807;28;20040;-72
2022/12/18 06:27:42;;;;;;;33.25;24.08;;;-5.80;99.90;;;;;;5034978;28;20045;-73
2022/12/18 06:30:11;;;;;;;36.67;24.77;;;-5.90;99.90;;;;;;5040796;28;20397;-72
2022/12/18 06:32:38;;;;;;;35.47;23.55;;;-6.00;99.90;;;;;;5036525;28;20052;-72
2022/12/18 06:35:05;;;;;;;35.90;23.90;;;-6.00;99.90;;;;;;5040054;28;20033;-73
2022/12/18 06:37:34;;;;;;;41.30;26.88;;;-6.00;99.90;;;;;;5032287;28;20135;-73
2022/12/18 06:40:00;;;;;;;32.78;24.10;;;-6.10;99.90;;;;;;5036453;28;20049;-74
2022/12/18 06:42:29;;;;;;;38.63;26.70;;;-6.20;99.90;;;;;;5033472;28;20510;-74
2022/12/18 06:44:55;;;;;;;41.58;26.58;;;-6.10;99.90;;;;;;5038417;28;20059;-73
2022/12/18 06:47:22;;;;;;;36.58;22.90;;;-6.20;99.90;;;;;;5033960;28;20530;-72
2022/12/18 06:49:49;;;;;;;42.58;25.73;;;-6.20;99.90;;;;;;5039566;28;20119;-74
2022/12/18 06:52:18;;;;;;;40.42;25.38;;;-6.20;99.90;;;;;;5035879;28;20029;-73
2022/12/18 06:54:45;;;;;;;36.17;25.63;;;-6.20;99.90;;;;;;5037081;28;20374;-72
2022/12/18 06:57:11;;;;;;;35.42;24.50;;;-6.20;99.90;;;;;;5033891;28;20419;-72
2022/12/18 06:59:38;;;;;;;32.00;23.92;;;-6.20;99.90;;;;;;5036755;28;20045;-73
2022/12/18 07:02:05;;;;;;;36.55;23.10;;;-6.20;99.90;;;;;;5032979;28;20037;-73
2022/12/18 07:04:32;;;;;;;43.17;27.77;;;-6.20;99.90;;;;;;5032227;28;20319;-73
2022/12/18 07:06:58;;;;;;;45.83;27.15;;;-6.20;99.90;;;;;;5037253;28;20044;-73
2022/12/18 07:09:25;;;;;;;40.80;25.88;;;-6.30;99.90;;;;;;5036394;28;20058;-73
2022/12/18 07:11:52;;;;;;;43.95;27.92;;;-6.30;99.90;;;;;;5035984;28;20043;-73
2022/12/18 07:14:19;;;;;;;39.67;27.00;;;-6.30;99.90;;;;;;5034410;28;20033;-73
2022/12/18 07:16:46;;;;;;;38.83;25.63;;;-6.20;99.90;;;;;;5036984;28;20933;-73
2022/12/18 07:19:13;;;;;;;37.88;26.17;;;-6.20;99.90;;;;;;5015994;28;20049;-72
2022/12/18 07:21:39;;;;;;;32.97;22.98;;;-6.10;99.90;;;;;;5036837;28;20041;-73
2022/12/18 07:24:07;;;;;;;36.03;26.50;;;-6.10;99.90;;;;;;5038773;28;20033;-72
2022/12/18 07:26:33;;;;;;;44.22;25.70;;;-6.10;99.90;;;;;;5034137;28;20049;-73
2022/12/18 07:29:00;;;;;;;34.88;24.20;;;-6.10;99.90;;;;;;5037196;28;20537;-73
2022/12/18 07:31:27;;;;;;;40.30;25.00;;;-6.10;99.90;;;;;;5037053;28;20044;-72
2022/12/18 07:33:54;;;;;;;32.30;21.45;;;-6.10;99.90;;;;;;5037595;28;20572;-73
2022/12/18 07:36:23;;;;;;;35.13;23.05;;;-6.00;99.90;;;;;;5032947;28;20521;-73
2022/12/18 07:38:52;;;;;;;31.27;20.58;;;-6.00;99.90;;;;;;5041036;28;20215;-73
2022/12/18 07:41:19;;;;;;;27.45;20.05;;;-6.00;99.90;;;;;;5035654;28;20426;-73
2022/12/18 07:43:47;;;;;;;26.88;20.00;;;-5.90;99.90;;;;;;5036680;28;20529;-72
2022/12/18 07:46:15;;;;;;;22.60;20.17;;;-5.90;99.90;;;;;;5034354;28;20065;-72
2022/12/18 07:48:43;;;;;;;28.00;20.00;;;-5.80;99.90;;;;;;5036075;28;20053;-73
2022/12/18 07:51:12;;;;;;;38.13;27.60;;;-5.80;99.90;;;;;;5012486;28;20044;-72
2022/12/18 07:53:39;;;;;;;28.95;25.95;;;-5.80;99.90;;;;;;5019937;28;20041;-72
2022/12/18 07:56:09;;;;;;;41.10;30.60;;;-5.80;99.90;;;;;;5018971;28;20048;-73
2022/12/18 07:58:55;;;;;;;30.30;27.08;;;-5.90;99.90;;;;;;5036305;28;20044;-72
2022/12/18 08:01:22;;;;;;;37.90;29.45;;;-5.90;99.90;;;;;;5034073;28;20056;-73
2022/12/18 08:03:49;;;;;;;36.83;27.52;;;-6.00;99.90;;;;;;5038065;28;21676;-73
2022/12/18 08:06:18;;;;;;;34.38;27.33;;;-6.00;99.90;;;;;;5031252;28;20053;-72
2022/12/18 08:08:48;;;;;;;36.47;28.90;;;-5.90;99.90;;;;;;5036340;28;20047;-72
2022/12/18 08:11:15;;;;;;;41.85;29.17;;;-5.90;99.90;;;;;;5017695;28;20049;-73
2022/12/18 08:13:42;;;;;;;36.72;27.15;;;-5.90;99.90;;;;;;5025357;28;20057;-72
2022/12/18 08:16:09;;;;;;;38.70;28.70;;;-5.90;99.90;;;;;;5036410;28;20051;-73
2022/12/18 08:18:37;;;;;;;32.22;27.13;;;-5.90;99.90;;;;;;5033919;28;20057;-73
2022/12/18 08:21:11;;;;;;;34.83;26.70;;;-5.80;99.90;;;;;;5037357;28;20112;-73
2022/12/18 08:23:39;;;;;;;30.00;26.20;;;-5.70;99.90;;;;;;5034087;28;20450;-72
2022/12/18 08:26:10;;;;;;;35.80;25.70;;;-5.60;99.90;;;;;;5033347;28;20283;-72
2022/12/18 08:28:37;;;;;;;44.28;29.77;;;-5.50;99.90;;;;;;5033830;28;20048;-73
2022/12/18 08:31:04;;;;;;;35.20;28.60;;;-5.40;99.90;;;;;;5035974;28;20040;-73
2022/12/18 08:33:32;;;;;;;33.42;28.85;;;-5.40;99.90;;;;;;5033851;28;20430;-73
2022/12/18 08:35:59;;;;;;;37.58;26.70;;;-5.30;99.90;;;;;;5035594;28;20052;-73
2022/12/18 08:38:26;;;;;;;32.15;25.77;;;-5.20;99.90;;;;;;5034623;28;20048;-73
2022/12/18 08:41:00;;;;;;;37.20;28.65;;;-5.20;99.90;;;;;;5035170;28;20421;-73
2022/12/18 08:46:16;;;;;;;31.65;28.35;;;-5.20;99.90;;;;;;5028596;28;20524;-73
2022/12/18 08:48:43;;;;;;;35.88;31.95;;;-5.10;99.90;;;;;;5031763;28;20045;-71
2022/12/18 08:51:10;;;;;;;35.00;30.50;;;-5.10;99.90;;;;;;5032682;28;20033;-71
2022/12/18 08:53:37;;;;;;;39.08;34.90;;;-4.90;99.90;;;;;;5016965;28;20114;-72
2022/12/18 08:56:05;;;;;;;37.15;33.03;;;-4.90;99.90;;;;;;5036066;28;20033;-74
2022/12/18 08:58:32;;;;;;;39.80;35.63;;;-4.80;99.90;;;;;;5033392;28;20738;-73
2022/12/18 09:01:08;;;;;;;41.38;37.17;;;-4.60;99.90;;;;;;5034508;28;20049;-72
2022/12/18 09:03:36;;;;;;;41.97;37.83;;;-4.60;99.90;;;;;;5033076;28;20052;-73
2022/12/18 09:06:03;;;;;;;40.10;36.58;;;-4.50;99.90;;;;;;5020658;28;20631;-73
2022/12/18 09:08:30;;;;;;;39.95;36.47;;;-4.50;99.90;;;;;;5036829;28;20871;-72
2022/12/18 09:10:56;;;;;;;38.42;35.50;;;-4.60;99.90;;;;;;5031673;28;20047;-73
2022/12/18 09:13:23;;;;;;;42.63;39.03;;;-4.50;99.90;;;;;;5027051;28;20037;-72
2022/12/18 09:15:52;;;;;;;41.85;38.28;;;-4.40;99.90;;;;;;5034031;28;20132;-72
2022/12/18 09:18:20;;;;;;;42.75;39.22;;;-4.30;99.90;;;;;;5032282;28;20052;-74
2022/12/18 09:20:47;;;;;;;39.83;37.15;;;-4.20;99.90;;;;;;5028129;28;20045;-74
2022/12/18 09:23:14;;;;;;;49.17;45.13;;;-4.10;99.90;;;;;;5031513;28;20056;-74
2022/12/18 09:25:40;;;;;;;46.40;42.20;;;-4.10;99.90;;;;;;5036409;28;20533;-74
2022/12/18 09:28:17;;;;;;;42.40;39.35;;;-4.10;99.90;;;;;;5036757;28;20527;-73
2022/12/18 09:30:47;;;;;;;44.75;40.67;;;-4.10;99.90;;;;;;5026042;28;20049;-73
2022/12/18 09:33:14;;;;;;;46.13;42.70;;;-4.20;99.90;;;;;;5033031;28;20045;-74
2022/12/18 09:35:43;;;;;;;41.72;38.67;;;-4.30;99.90;;;;;;5036402;28;20041;-73
2022/12/18 09:38:13;;;;;;;46.35;42.53;;;-4.30;99.90;;;;;;5032038;28;20041;-72
2022/12/18 09:40:45;;;;;;;42.90;39.47;;;-4.30;99.90;;;;;;5034335;28;20289;-73
2022/12/18 09:43:19;;;;;;;42.53;39.17;;;-4.30;99.90;;;;;;5029962;28;20045;-72
2022/12/18 09:45:51;;;;;;;37.40;34.40;;;-4.40;99.90;;;;;;5049738;28;20048;-73
2022/12/18 09:48:32;;;;;;;42.20;37.97;;;-4.40;99.90;;;;;;5033031;28;20160;-73
2022/12/18 09:51:05;;;;;;;34.50;32.40;;;-4.20;99.90;;;;;;5033236;28;20049;-73
2022/12/18 09:53:37;;;;;;;36.65;33.53;;;-4.20;99.90;;;;;;5031408;28;20341;-73
2022/12/18 09:56:05;;;;;;;34.97;32.35;;;-4.20;99.90;;;;;;5032563;28;20547;-73
2022/12/18 09:58:39;;;;;;;38.33;35.13;;;-4.30;99.90;;;;;;5028106;28;20316;-73
2022/12/18 10:01:21;;;;;;;35.78;32.92;;;-4.30;99.90;;;;;;5039723;28;20048;-74
2022/12/18 10:03:48;;;;;;;42.22;38.45;;;-4.40;99.90;;;;;;5037243;28;20049;-74
2022/12/18 10:06:26;;;;;;;37.42;34.42;;;-4.40;99.90;;;;;;5032336;28;20037;-73
2022/12/18 10:09:06;;;;;;;42.35;39.00;;;-4.40;99.90;;;;;;5038452;28;20426;-73
2022/12/18 10:11:40;;;;;;;40.40;37.20;;;-4.30;99.90;;;;;;5036015;28;20056;-73
2022/12/18 10:14:33;;;;;;;44.38;41.22;;;-4.20;99.90;;;;;;5038454;28;20049;-73
2022/12/18 10:17:03;;;;;;;43.40;40.05;;;-4.10;99.90;;;;;;5030161;28;20055;-73
2022/12/18 10:19:41;;;;;;;44.88;41.20;;;-3.90;99.90;;;;;;5036741;28;20399;-73
2022/12/18 10:22:26;;;;;;;44.42;40.90;;;-3.80;99.90;;;;;;5039184;28;20202;-73
2022/12/18 10:25:06;;;;;;;45.85;42.08;;;-3.70;99.90;;;;;;5035735;28;20057;-73
2022/12/18 10:27:33;;;;;;;37.80;34.90;;;-3.70;99.90;;;;;;5036253;28;20274;-73
2022/12/18 10:30:04;;;;;;;38.22;34.80;;;-3.60;99.90;;;;;;5037127;28;20041;-73
2022/12/18 10:32:32;;;;;;;39.47;36.17;;;-3.60;99.90;;;;;;5037096;28;20049;-73
2022/12/18 10:34:59;;;;;;;38.22;35.20;;;-3.50;99.90;;;;;;5037976;28;20067;-73
2022/12/18 10:37:29;;;;;;;37.58;34.47;;;-3.30;99.90;;;;;;5032671;28;20115;-73
2022/12/18 10:40:14;;;;;;;37.22;34.28;;;-3.10;99.90;;;;;;5034280;28;20090;-73
2022/12/18 10:43:11;;;;;;;37.67;34.80;;;-3.00;99.90;;;;;;5039367;28;20056;-74
2022/12/18 10:45:43;;;;;;;43.63;40.72;;;-2.80;99.90;;;;;;5033178;28;20488;-73
2022/12/18 10:48:23;;;;;;;36.47;33.90;;;-2.70;99.90;;;;;;5034014;28;20052;-73
2022/12/18 10:50:51;;;;;;;40.80;37.80;;;-2.50;99.90;;;;;;5036838;28;20040;-74
2022/12/18 10:53:41;;;;;;;42.47;38.72;;;-2.40;99.90;;;;;;5039818;28;20106;-74
2022/12/18 10:56:09;;;;;;;42.70;39.58;;;-2.40;99.90;;;;;;5021606;28;20464;-73
2022/12/18 10:58:38;;;;;;;46.15;42.88;;;-2.40;99.90;;;;;;5022445;28;20415;-73
2022/12/18 11:01:07;;;;;;;41.40;38.63;;;-2.40;99.90;;;;;;5036302;28;20482;-73
2022/12/18 11:03:43;;;;;;;49.50;46.38;;;-2.40;99.90;;;;;;5033870;28;20048;-73
2022/12/18 11:06:14;;;;;;;42.67;39.50;;;-2.60;99.90;;;;;;5038171;28;20041;-72
2022/12/18 11:08:44;;;;;;;40.85;38.10;;;-2.50;99.90;;;;;;5038393;28;20096;-73
2022/12/18 11:11:22;;;;;;;42.08;38.90;;;-2.50;99.90;;;;;;5031481;28;20153;-72
2022/12/18 11:14:00;;;;;;;50.80;47.30;;;-2.50;99.90;;;;;;5036147;28;20040;-73
2022/12/18 11:16:30;;;;;;;47.83;44.67;;;-2.40;99.90;;;;;;5033765;28;20033;-73
2022/12/18 11:19:36;;;;;;;45.55;42.58;;;-2.60;99.90;;;;;;5037842;28;20358;-73
2022/12/18 11:22:20;;;;;;;;;;;-2.60;99.90;;;;;;5013548;28;20099;-73
2022/12/18 11:24:59;;;;;;;43.90;40.67;;;-2.70;99.90;;;;;;5036271;28;19921;-73
2022/12/18 11:27:52;;;;;;;44.88;41.60;;;-2.70;99.90;;;;;;5030566;28;20029;-73
2022/12/18 11:30:23;;;;;;;45.47;42.17;;;-2.70;99.90;;;;;;5033097;28;20258;-73
2022/12/18 11:33:14;;;;;;;42.85;39.85;;;-2.60;99.90;;;;;;5032638;28;20264;-73
2022/12/18 11:35:52;;;;;;;40.13;37.45;;;-2.60;99.90;;;;;;5035218;28;20040;-73
2022/12/18 11:38:25;;;;;;;39.85;37.05;;;-2.60;99.90;;;;;;5023847;28;20048;-73
2022/12/18 11:41:00;;;;;;;44.67;41.72;;;-2.50;99.90;;;;;;5038440;28;20047;-72
2022/12/18 11:43:40;;;;;;;45.72;42.53;;;-2.50;99.90;;;;;;5032890;28;20047;-73
2022/12/18 11:46:14;;;;;;;45.63;42.47;;;-2.60;99.90;;;;;;5036872;28;20036;-74
2022/12/18 11:49:01;;;;;;;46.00;42.75;;;-2.60;99.90;;;;;;5032485;28;20396;-73
2022/12/18 11:51:34;;;;;;;44.22;41.13;;;-2.50;99.90;;;;;;5030570;28;20042;-73
2022/12/18 11:54:11;;;;;;;45.25;41.78;;;-2.50;99.90;;;;;;5037553;28;20088;-73
2022/12/18 11:56:45;;;;;;;43.90;40.55;;;-2.50;99.90;;;;;;5037570;28;20394;-73
2022/12/18 11:59:37;;;;;;;44.30;40.95;;;-2.50;99.90;;;;;;5033847;28;20214;-73
2022/12/18 12:02:43;;;;;;;37.60;34.22;;;-2.40;99.90;;;;;;5030930;28;20041;-73
2022/12/18 12:05:28;;;;;;;38.72;35.80;;;-2.30;99.90;;;;;;5036971;28;20044;-73
2022/12/18 12:08:10;;;;;;;37.33;34.42;;;-2.40;99.90;;;;;;5034075;28;20045;-73
2022/12/18 12:10:53;;;;;;;40.67;37.92;;;-2.30;99.90;;;;;;5025173;28;20061;-73
2022/12/18 12:13:39;;;;;;;42.22;39.35;;;-2.20;99.90;;;;;;5028673;28;20040;-73
2022/12/18 12:16:35;;;;;;;39.75;37.10;;;-2.10;99.90;;;;;;5033372;28;20033;-73
2022/12/18 12:19:26;;;;;;;41.55;38.78;;;-2.10;99.90;;;;;;5028818;28;20053;-73
2022/12/18 12:22:17;;;;;;;45.60;41.95;;;-2.20;99.90;;;;;;5031407;28;20053;-73
2022/12/18 12:24:44;;;;;;;44.67;39.72;;;-2.30;99.90;;;;;;5024102;28;20057;-72
2022/12/18 12:27:36;;;;;;;41.72;38.47;;;-2.30;99.90;;;;;;5025900;28;20239;-74
2022/12/18 12:30:09;;;;;;;41.95;38.95;;;-2.20;99.90;;;;;;5032328;28;20724;-73
2022/12/18 12:33:06;;;;;;;38.83;36.33;;;-2.20;99.90;;;;;;5035764;28;20148;-73
2022/12/18 12:35:54;;;;;;;38.22;35.67;;;-2.20;99.90;;;;;;5030446;28;20464;-73
2022/12/18 12:38:43;;;;;;;35.22;32.63;;;-2.10;99.90;;;;;;5036261;28;20044;-73
2022/12/18 12:44:13;;;;;;;34.75;32.55;;;-2.10;99.90;;;;;;5036152;28;20065;-74
2022/12/18 12:46:42;;;;;;;35.25;32.63;;;-2.10;99.90;;;;;;5020211;28;20213;-72
2022/12/18 12:49:16;;;;;;;36.47;33.22;;;-2.10;99.90;;;;;;5037269;28;20150;-73
2022/12/18 12:52:05;;;;;;;32.60;30.52;;;-2.00;99.90;;;;;;5035579;28;20080;-73
2022/12/18 12:54:33;;;;;;;35.95;33.10;;;-2.10;99.90;;;;;;5020210;28;20048;-72
2022/12/18 12:57:20;;;;;;;32.50;30.10;;;-2.10;99.90;;;;;;5032264;28;20041;-72
2022/12/18 13:00:07;;;;;;;36.67;33.90;;;-2.10;99.90;;;;;;5030643;28;20044;-72